sensor_id;sensor_type;location;lat;lon;timestamp;temperature;humidity
21834;DHT22;11079;51.092;3.458;2023-09-30T00:00:15;14.00;99.90
21834;DHT22;11079;51.092;3.458;2023-09-30T00:02:44;14.00;99.90
21834;DHT22;11079;51.092;3.458;2023-09-30T00:05:10;14.10;99.90
21834;DHT22;11079;51.092;3.458;2023-09-30T00:07:36;14.00;99.90
21834;DHT22;11079;51.092;3.458;2023-09-30T00:10:03;14.00;99.90
21834;DHT22;11079;51.092;3.458;2023-09-30T00:12:34;14.10;99.90
21834;DHT22;11079;51.092;3.458;2023-09-30T00:15:00;14.00;99.90
21834;DHT22;11079;51.092;3.458;2023-09-30T00:17:25;14.10;99.90
21834;DHT22;11079;51.092;3.458;2023-09-30T00:19:51;14.20;99.90
21834;DHT22;11079;51.092;3.458;2023-09-30T00:22:17;14.20;99.90
21834;DHT22;11079;51.092;3.458;2023-09-30T00:24:46;14.20;99.90
21834;DHT22;11079;51.092;3.458;2023-09-30T00:27:14;14.10;99.90
21834;DHT22;11079;51.092;3.458;2023-09-30T00:29:43;14.10;99.90
21834;DHT22;11079;51.092;3.458;2023-09-30T00:32:15;14.10;99.90
21834;DHT22;11079;51.092;3.458;2023-09-30T00:34:43;14.00;99.90
21834;DHT22;11079;51.092;3.458;2023-09-30T00:37:18;13.90;99.90
21834;DHT22;11079;51.092;3.458;2023-09-30T00:39:43;13.90;99.90
21834;DHT22;11079;51.092;3.458;2023-09-30T00:42:18;13.80;99.90
21834;DHT22;11079;51.092;3.458;2023-09-30T00:44:46;13.80;99.90
21834;DHT22;11079;51.092;3.458;2023-09-30T00:47:18;13.80;99.90
21834;DHT22;11079;51.092;3.458;2023-09-30T00:49:47;13.70;99.90
21834;DHT22;11079;51.092;3.458;2023-09-30T00:52:18;13.70;99.90
21834;DHT22;11079;51.092;3.458;2023-09-30T00:54:46;13.50;99.90
21834;DHT22;11079;51.092;3.458;2023-09-30T00:57:14;13.50;99.90
21834;DHT22;11079;51.092;3.458;2023-09-30T00:59:44;13.60;99.90
21834;DHT22;11079;51.092;3.458;2023-09-30T01:02:10;13.60;99.90
21834;DHT22;11079;51.092;3.458;2023-09-30T01:04:41;13.70;99.90
21834;DHT22;11079;51.092;3.458;2023-09-30T01:07:09;13.70;99.90
21834;DHT22;11079;51.092;3.458;2023-09-30T01:09:37;13.70;99.90
21834;DHT22;11079;51.092;3.458;2023-09-30T01:12:06;13.80;99.90
21834;DHT22;11079;51.092;3.458;2023-09-30T01:14:36;13.60;99.90
21834;DHT22;11079;51.092;3.458;2023-09-30T01:17:09;13.60;99.90
21834;DHT22;11079;51.092;3.458;2023-09-30T01:19:35;13.70;99.90
21834;DHT22;11079;51.092;3.458;2023-09-30T01:22:01;13.80;99.90
21834;DHT22;11079;51.092;3.458;2023-09-30T01:24:41;13.70;99.90
21834;DHT22;11079;51.092;3.458;2023-09-30T01:27:08;13.70;99.90
21834;DHT22;11079;51.092;3.458;2023-09-30T01:29:38;13.70;99.90
21834;DHT22;11079;51.092;3.458;2023-09-30T01:32:07;13.50;99.90
21834;DHT22;11079;51.092;3.458;2023-09-30T01:34:45;13.60;99.90
21834;DHT22;11079;51.092;3.458;2023-09-30T01:37:19;13.60;99.90
21834;DHT22;11079;51.092;3.458;2023-09-30T01:42:34;13.60;99.90
21834;DHT22;11079;51.092;3.458;2023-09-30T01:45:06;13.50;99.90
21834;DHT22;11079;51.092;3.458;2023-09-30T01:47:41;13.40;99.90
21834;DHT22;11079;51.092;3.458;2023-09-30T01:50:11;13.30;99.90
21834;DHT22;11079;51.092;3.458;2023-09-30T01:52:40;13.30;99.90
21834;DHT22;11079;51.092;3.458;2023-09-30T01:55:09;13.30;99.90
21834;DHT22;11079;51.092;3.458;2023-09-30T01:57:37;13.30;99.90
21834;DHT22;11079;51.092;3.458;2023-09-30T02:00:03;13.30;99.90
21834;DHT22;11079;51.092;3.458;2023-09-30T02:02:39;13.20;99.90
21834;DHT22;11079;51.092;3.458;2023-09-30T02:05:26;13.30;99.90
21834;DHT22;11079;51.092;3.458;2023-09-30T02:07:53;13.10;99.90
21834;DHT22;11079;51.092;3.458;2023-09-30T02:10:23;13.20;99.90
21834;DHT22;11079;51.092;3.458;2023-09-30T02:16:13;13.20;99.90
21834;DHT22;11079;51.092;3.458;2023-09-30T02:19:15;13.20;99.90
21834;DHT22;11079;51.092;3.458;2023-09-30T02:21:58;13.20;99.90
21834;DHT22;11079;51.092;3.458;2023-09-30T02:24:32;13.20;99.90
21834;DHT22;11079;51.092;3.458;2023-09-30T02:27:29;13.20;99.90
21834;DHT22;11079;51.092;3.458;2023-09-30T02:30:36;13.40;99.90
21834;DHT22;11079;51.092;3.458;2023-09-30T02:33:02;13.30;99.90
21834;DHT22;11079;51.092;3.458;2023-09-30T02:35:34;13.30;99.90
21834;DHT22;11079;51.092;3.458;2023-09-30T02:38:12;13.30;99.90
21834;DHT22;11079;51.092;3.458;2023-09-30T02:40:42;13.50;99.90
21834;DHT22;11079;51.092;3.458;2023-09-30T02:43:12;13.50;99.90
21834;DHT22;11079;51.092;3.458;2023-09-30T02:45:39;13.30;99.90
21834;DHT22;11079;51.092;3.458;2023-09-30T02:48:06;13.40;99.90
21834;DHT22;11079;51.092;3.458;2023-09-30T02:50:34;13.40;99.90
21834;DHT22;11079;51.092;3.458;2023-09-30T02:53:25;13.50;99.90
21834;DHT22;11079;51.092;3.458;2023-09-30T02:56:12;13.50;99.90
21834;DHT22;11079;51.092;3.458;2023-09-30T03:02:54;13.40;99.90
21834;DHT22;11079;51.092;3.458;2023-09-30T03:05:44;13.40;99.90
21834;DHT22;11079;51.092;3.458;2023-09-30T03:12:05;13.40;99.90
21834;DHT22;11079;51.092;3.458;2023-09-30T03:14:58;13.40;99.90
21834;DHT22;11079;51.092;3.458;2023-09-30T03:17:36;13.40;99.90
21834;DHT22;11079;51.092;3.458;2023-09-30T03:20:08;13.40;99.90
21834;DHT22;11079;51.092;3.458;2023-09-30T03:23:11;13.40;99.90
21834;DHT22;11079;51.092;3.458;2023-09-30T03:26:20;13.30;99.90
21834;DHT22;11079;51.092;3.458;2023-09-30T03:29:07;13.20;99.90
21834;DHT22;11079;51.092;3.458;2023-09-30T03:35:10;13.20;99.90
21834;DHT22;11079;51.092;3.458;2023-09-30T03:38:07;13.10;99.90
21834;DHT22;11079;51.092;3.458;2023-09-30T03:41:08;13.00;99.90
21834;DHT22;11079;51.092;3.458;2023-09-30T03:44:13;13.00;99.90
21834;DHT22;11079;51.092;3.458;2023-09-30T03:46:58;13.10;99.90
21834;DHT22;11079;51.092;3.458;2023-09-30T03:49:40;13.30;99.90
21834;DHT22;11079;51.092;3.458;2023-09-30T03:56:17;13.10;99.90
21834;DHT22;11079;51.092;3.458;2023-09-30T03:59:08;13.20;99.90
21834;DHT22;11079;51.092;3.458;2023-09-30T04:01:55;13.20;99.90
21834;DHT22;11079;51.092;3.458;2023-09-30T04:04:42;13.10;99.90
21834;DHT22;11079;51.092;3.458;2023-09-30T04:07:28;13.10;99.90
21834;DHT22;11079;51.092;3.458;2023-09-30T04:10:11;12.90;99.90
21834;DHT22;11079;51.092;3.458;2023-09-30T04:13:30;13.00;99.90
21834;DHT22;11079;51.092;3.458;2023-09-30T04:20:07;12.90;99.90
21834;DHT22;11079;51.092;3.458;2023-09-30T04:32:37;12.90;99.90
21834;DHT22;11079;51.092;3.458;2023-09-30T05:10:24;12.60;99.90
21834;DHT22;11079;51.092;3.458;2023-09-30T05:13:26;12.60;99.90
21834;DHT22;11079;51.092;3.458;2023-09-30T05:21:24;12.60;99.90
21834;DHT22;11079;51.092;3.458;2023-09-30T05:23:55;12.70;99.90
21834;DHT22;11079;51.092;3.458;2023-09-30T05:47:35;12.70;99.90
21834;DHT22;11079;51.092;3.458;2023-09-30T05:50:24;12.60;99.90
21834;DHT22;11079;51.092;3.458;2023-09-30T05:52:54;12.60;99.90
21834;DHT22;11079;51.092;3.458;2023-09-30T05:55:47;12.60;99.90
21834;DHT22;11079;51.092;3.458;2023-09-30T05:58:17;12.60;99.90
21834;DHT22;11079;51.092;3.458;2023-09-30T06:00:46;12.60;99.90
21834;DHT22;11079;51.092;3.458;2023-09-30T06:03:19;12.70;99.90
21834;DHT22;11079;51.092;3.458;2023-09-30T06:06:49;12.60;99.90
21834;DHT22;11079;51.092;3.458;2023-09-30T06:09:18;12.50;99.90
21834;DHT22;11079;51.092;3.458;2023-09-30T06:22:29;12.60;99.90
21834;DHT22;11079;51.092;3.458;2023-09-30T06:25:19;12.60;99.90
21834;DHT22;11079;51.092;3.458;2023-09-30T06:28:39;12.70;99.90
21834;DHT22;11079;51.092;3.458;2023-09-30T06:31:48;12.80;99.90
21834;DHT22;11079;51.092;3.458;2023-09-30T06:34:37;12.70;99.90
21834;DHT22;11079;51.092;3.458;2023-09-30T06:37:23;12.90;99.90
21834;DHT22;11079;51.092;3.458;2023-09-30T06:40:14;12.80;99.90
21834;DHT22;11079;51.092;3.458;2023-09-30T06:43:05;12.90;99.90
21834;DHT22;11079;51.092;3.458;2023-09-30T06:48:41;13.00;99.90
21834;DHT22;11079;51.092;3.458;2023-09-30T06:51:16;13.00;99.90
21834;DHT22;11079;51.092;3.458;2023-09-30T06:53:55;13.10;99.90
21834;DHT22;11079;51.092;3.458;2023-09-30T07:00:24;13.10;99.90
21834;DHT22;11079;51.092;3.458;2023-09-30T07:03:12;13.30;99.90
21834;DHT22;11079;51.092;3.458;2023-09-30T07:05:56;13.40;99.90
21834;DHT22;11079;51.092;3.458;2023-09-30T07:08:35;13.40;99.90
21834;DHT22;11079;51.092;3.458;2023-09-30T07:11:04;13.50;99.90
21834;DHT22;11079;51.092;3.458;2023-09-30T07:17:40;13.60;99.90
21834;DHT22;11079;51.092;3.458;2023-09-30T07:20:15;13.60;99.90
21834;DHT22;11079;51.092;3.458;2023-09-30T07:23:01;13.90;99.90
21834;DHT22;11079;51.092;3.458;2023-09-30T07:25:53;14.00;99.90
21834;DHT22;11079;51.092;3.458;2023-09-30T07:29:00;14.40;99.90
21834;DHT22;11079;51.092;3.458;2023-09-30T07:32:14;14.80;99.90
21834;DHT22;11079;51.092;3.458;2023-09-30T07:34:43;15.50;99.90
21834;DHT22;11079;51.092;3.458;2023-09-30T07:37:52;15.90;99.90
21834;DHT22;11079;51.092;3.458;2023-09-30T07:47:41;17.20;99.90
21834;DHT22;11079;51.092;3.458;2023-09-30T07:50:38;17.30;99.90
21834;DHT22;11079;51.092;3.458;2023-09-30T07:54:17;17.80;99.90
21834;DHT22;11079;51.092;3.458;2023-09-30T07:57:16;18.00;99.90
21834;DHT22;11079;51.092;3.458;2023-09-30T08:00:30;20.10;99.90
21834;DHT22;11079;51.092;3.458;2023-09-30T08:03:38;20.50;99.90
21834;DHT22;11079;51.092;3.458;2023-09-30T08:06:12;21.00;99.90
21834;DHT22;11079;51.092;3.458;2023-09-30T08:09:13;20.70;99.90
21834;DHT22;11079;51.092;3.458;2023-09-30T08:12:50;20.50;99.90
21834;DHT22;11079;51.092;3.458;2023-09-30T08:19:06;21.90;99.90
21834;DHT22;11079;51.092;3.458;2023-09-30T08:22:45;21.90;99.90
21834;DHT22;11079;51.092;3.458;2023-09-30T08:26:12;22.60;99.90
21834;DHT22;11079;51.092;3.458;2023-09-30T08:28:47;24.00;99.90
21834;DHT22;11079;51.092;3.458;2023-09-30T08:31:54;24.50;99.90
21834;DHT22;11079;51.092;3.458;2023-09-30T08:34:49;25.50;99.90
21834;DHT22;11079;51.092;3.458;2023-09-30T08:37:23;26.70;99.90
21834;DHT22;11079;51.092;3.458;2023-09-30T08:40:13;26.90;99.90
21834;DHT22;11079;51.092;3.458;2023-09-30T08:43:29;26.90;99.90
21834;DHT22;11079;51.092;3.458;2023-09-30T08:46:20;25.70;99.90
21834;DHT22;11079;51.092;3.458;2023-09-30T08:49:23;25.60;99.90
21834;DHT22;11079;51.092;3.458;2023-09-30T08:52:06;25.70;99.90
21834;DHT22;11079;51.092;3.458;2023-09-30T08:54:54;24.80;99.90
21834;DHT22;11079;51.092;3.458;2023-09-30T08:57:45;24.40;99.90
21834;DHT22;11079;51.092;3.458;2023-09-30T09:00:17;23.90;99.90
21834;DHT22;11079;51.092;3.458;2023-09-30T09:03:10;24.00;99.90
21834;DHT22;11079;51.092;3.458;2023-09-30T09:06:27;24.00;99.90
21834;DHT22;11079;51.092;3.458;2023-09-30T09:09:26;23.80;99.90
21834;DHT22;11079;51.092;3.458;2023-09-30T09:12:19;23.90;99.90
21834;DHT22;11079;51.092;3.458;2023-09-30T09:14:45;24.70;99.90
21834;DHT22;11079;51.092;3.458;2023-09-30T09:17:16;25.60;99.90
21834;DHT22;11079;51.092;3.458;2023-09-30T09:19:59;26.50;99.90
21834;DHT22;11079;51.092;3.458;2023-09-30T09:22:57;27.70;99.90
21834;DHT22;11079;51.092;3.458;2023-09-30T09:25:48;27.90;99.90
21834;DHT22;11079;51.092;3.458;2023-09-30T09:28:34;26.40;99.90
21834;DHT22;11079;51.092;3.458;2023-09-30T09:31:31;26.00;99.90
21834;DHT22;11079;51.092;3.458;2023-09-30T09:34:02;25.90;99.90
21834;DHT22;11079;51.092;3.458;2023-09-30T09:36:43;26.00;99.90
21834;DHT22;11079;51.092;3.458;2023-09-30T09:39:09;25.40;99.90
21834;DHT22;11079;51.092;3.458;2023-09-30T09:41:53;24.70;99.90
21834;DHT22;11079;51.092;3.458;2023-09-30T09:44:24;24.50;99.90
21834;DHT22;11079;51.092;3.458;2023-09-30T09:46:53;25.50;99.90
21834;DHT22;11079;51.092;3.458;2023-09-30T09:49:20;26.60;99.90
21834;DHT22;11079;51.092;3.458;2023-09-30T09:51:47;28.80;99.90
21834;DHT22;11079;51.092;3.458;2023-09-30T09:54:14;29.50;99.90
21834;DHT22;11079;51.092;3.458;2023-09-30T09:56:45;30.20;99.90
21834;DHT22;11079;51.092;3.458;2023-09-30T09:59:12;30.70;99.90
21834;DHT22;11079;51.092;3.458;2023-09-30T10:01:40;31.80;99.90
21834;DHT22;11079;51.092;3.458;2023-09-30T10:04:06;32.10;99.90
21834;DHT22;11079;51.092;3.458;2023-09-30T10:06:33;31.70;99.90
21834;DHT22;11079;51.092;3.458;2023-09-30T10:09:07;31.00;99.90
21834;DHT22;11079;51.092;3.458;2023-09-30T10:11:35;30.40;99.90
21834;DHT22;11079;51.092;3.458;2023-09-30T10:14:02;30.50;99.90
21834;DHT22;11079;51.092;3.458;2023-09-30T10:21:34;31.70;99.90
21834;DHT22;11079;51.092;3.458;2023-09-30T10:24:28;30.80;99.90
21834;DHT22;11079;51.092;3.458;2023-09-30T10:35:21;31.70;99.90
21834;DHT22;11079;51.092;3.458;2023-09-30T10:40:53;30.40;99.90
21834;DHT22;11079;51.092;3.458;2023-09-30T10:43:39;30.50;99.90
21834;DHT22;11079;51.092;3.458;2023-09-30T10:48:51;29.60;99.90
21834;DHT22;11079;51.092;3.458;2023-09-30T10:51:19;29.60;99.90
21834;DHT22;11079;51.092;3.458;2023-09-30T10:56:14;30.30;99.90
21834;DHT22;11079;51.092;3.458;2023-09-30T10:58:47;30.40;99.90
21834;DHT22;11079;51.092;3.458;2023-09-30T11:01:18;29.50;99.90
21834;DHT22;11079;51.092;3.458;2023-09-30T11:03:46;28.20;99.90
21834;DHT22;11079;51.092;3.458;2023-09-30T11:06:13;28.50;99.90
21834;DHT22;11079;51.092;3.458;2023-09-30T11:11:17;29.90;99.90
21834;DHT22;11079;51.092;3.458;2023-09-30T11:13:42;29.70;99.90
21834;DHT22;11079;51.092;3.458;2023-09-30T11:16:08;30.30;99.90
21834;DHT22;11079;51.092;3.458;2023-09-30T11:18:35;30.20;99.90
21834;DHT22;11079;51.092;3.458;2023-09-30T11:21:12;29.30;99.90
21834;DHT22;11079;51.092;3.458;2023-09-30T11:23:40;29.70;99.90
21834;DHT22;11079;51.092;3.458;2023-09-30T11:26:06;30.10;99.90
21834;DHT22;11079;51.092;3.458;2023-09-30T11:28:37;29.80;99.90
21834;DHT22;11079;51.092;3.458;2023-09-30T11:31:03;28.80;99.90
21834;DHT22;11079;51.092;3.458;2023-09-30T11:33:31;28.00;99.90
21834;DHT22;11079;51.092;3.458;2023-09-30T11:36:04;27.40;99.90
21834;DHT22;11079;51.092;3.458;2023-09-30T11:38:35;28.20;99.90
21834;DHT22;11079;51.092;3.458;2023-09-30T11:41:05;28.40;99.90
21834;DHT22;11079;51.092;3.458;2023-09-30T11:43:34;28.20;99.90
21834;DHT22;11079;51.092;3.458;2023-09-30T11:46:10;28.00;99.90
21834;DHT22;11079;51.092;3.458;2023-09-30T11:48:57;27.70;99.90
21834;DHT22;11079;51.092;3.458;2023-09-30T11:51:25;26.50;99.90
21834;DHT22;11079;51.092;3.458;2023-09-30T11:53:52;26.00;99.90
21834;DHT22;11079;51.092;3.458;2023-09-30T11:56:23;26.20;99.90
21834;DHT22;11079;51.092;3.458;2023-09-30T11:58:55;26.80;99.90
21834;DHT22;11079;51.092;3.458;2023-09-30T12:01:21;27.40;99.90
21834;DHT22;11079;51.092;3.458;2023-09-30T12:03:50;28.30;99.90
21834;DHT22;11079;51.092;3.458;2023-09-30T12:06:21;29.30;99.90
21834;DHT22;11079;51.092;3.458;2023-09-30T12:08:47;29.30;99.80
21834;DHT22;11079;51.092;3.458;2023-09-30T12:11:13;29.10;99.80
21834;DHT22;11079;51.092;3.458;2023-09-30T12:13:41;28.20;99.90
21834;DHT22;11079;51.092;3.458;2023-09-30T12:16:11;27.90;99.90
21834;DHT22;11079;51.092;3.458;2023-09-30T12:18:38;28.60;99.90
21834;DHT22;11079;51.092;3.458;2023-09-30T12:21:05;29.30;99.90
21834;DHT22;11079;51.092;3.458;2023-09-30T12:23:33;28.80;98.40
21834;DHT22;11079;51.092;3.458;2023-09-30T12:25:59;29.30;99.90
21834;DHT22;11079;51.092;3.458;2023-09-30T12:28:24;29.40;97.60
21834;DHT22;11079;51.092;3.458;2023-09-30T12:30:52;29.10;95.60
21834;DHT22;11079;51.092;3.458;2023-09-30T12:33:18;29.10;94.40
21834;DHT22;11079;51.092;3.458;2023-09-30T12:35:45;29.40;95.00
21834;DHT22;11079;51.092;3.458;2023-09-30T12:38:10;28.90;96.10
21834;DHT22;11079;51.092;3.458;2023-09-30T12:40:42;29.00;95.10
21834;DHT22;11079;51.092;3.458;2023-09-30T12:43:09;28.60;97.00
21834;DHT22;11079;51.092;3.458;2023-09-30T12:45:38;28.10;97.60
21834;DHT22;11079;51.092;3.458;2023-09-30T12:48:04;27.70;95.80
21834;DHT22;11079;51.092;3.458;2023-09-30T12:50:36;26.90;98.40
21834;DHT22;11079;51.092;3.458;2023-09-30T12:53:15;26.50;99.90
21834;DHT22;11079;51.092;3.458;2023-09-30T12:59:09;26.10;99.90
21834;DHT22;11079;51.092;3.458;2023-09-30T13:02:23;26.10;99.90
21834;DHT22;11079;51.092;3.458;2023-09-30T13:08:58;26.60;99.90
21834;DHT22;11079;51.092;3.458;2023-09-30T13:19:17;26.50;99.70
21834;DHT22;11079;51.092;3.458;2023-09-30T13:26:14;27.40;98.00
21834;DHT22;11079;51.092;3.458;2023-09-30T13:29:40;27.30;98.30
21834;DHT22;11079;51.092;3.458;2023-09-30T13:39:30;27.30;98.20
21834;DHT22;11079;51.092;3.458;2023-09-30T13:42:10;28.00;96.50
21834;DHT22;11079;51.092;3.458;2023-09-30T13:45:48;28.40;96.20
21834;DHT22;11079;51.092;3.458;2023-09-30T13:54:55;27.30;96.20
21834;DHT22;11079;51.092;3.458;2023-09-30T14:00:47;26.80;97.50
21834;DHT22;11079;51.092;3.458;2023-09-30T14:07:20;25.90;97.40
21834;DHT22;11079;51.092;3.458;2023-09-30T14:13:00;26.10;99.50
21834;DHT22;11079;51.092;3.458;2023-09-30T14:16:42;26.10;99.90
21834;DHT22;11079;51.092;3.458;2023-09-30T14:19:41;26.20;99.90
21834;DHT22;11079;51.092;3.458;2023-09-30T14:22:50;26.10;98.90
21834;DHT22;11079;51.092;3.458;2023-09-30T14:29:16;25.60;99.90
21834;DHT22;11079;51.092;3.458;2023-09-30T14:35:35;25.70;99.90
21834;DHT22;11079;51.092;3.458;2023-09-30T14:38:05;25.50;99.90
21834;DHT22;11079;51.092;3.458;2023-09-30T14:40:36;25.80;99.90
21834;DHT22;11079;51.092;3.458;2023-09-30T14:43:04;25.60;99.90
21834;DHT22;11079;51.092;3.458;2023-09-30T14:45:40;25.30;99.90
21834;DHT22;11079;51.092;3.458;2023-09-30T14:48:23;25.50;99.90
21834;DHT22;11079;51.092;3.458;2023-09-30T14:51:26;24.70;99.90
21834;DHT22;11079;51.092;3.458;2023-09-30T14:53:58;23.90;99.90
21834;DHT22;11079;51.092;3.458;2023-09-30T14:56:47;23.50;99.90
21834;DHT22;11079;51.092;3.458;2023-09-30T14:59:42;23.20;99.90
21834;DHT22;11079;51.092;3.458;2023-09-30T15:02:11;23.00;99.90
21834;DHT22;11079;51.092;3.458;2023-09-30T15:05:23;22.80;99.90
21834;DHT22;11079;51.092;3.458;2023-09-30T15:08:05;22.70;99.90
21834;DHT22;11079;51.092;3.458;2023-09-30T15:13:51;22.90;99.90
21834;DHT22;11079;51.092;3.458;2023-09-30T15:16:21;22.60;99.90
21834;DHT22;11079;51.092;3.458;2023-09-30T15:18:48;22.60;99.90
21834;DHT22;11079;51.092;3.458;2023-09-30T15:21:15;22.70;99.90
21834;DHT22;11079;51.092;3.458;2023-09-30T15:23:43;22.60;99.90
21834;DHT22;11079;51.092;3.458;2023-09-30T15:26:10;22.50;99.90
21834;DHT22;11079;51.092;3.458;2023-09-30T15:28:36;22.50;99.90
21834;DHT22;11079;51.092;3.458;2023-09-30T15:31:02;22.40;99.90
21834;DHT22;11079;51.092;3.458;2023-09-30T15:33:28;22.20;99.90
21834;DHT22;11079;51.092;3.458;2023-09-30T15:35:55;22.00;99.90
21834;DHT22;11079;51.092;3.458;2023-09-30T15:38:21;22.00;99.90
21834;DHT22;11079;51.092;3.458;2023-09-30T15:40:54;22.00;99.90
21834;DHT22;11079;51.092;3.458;2023-09-30T15:43:25;21.70;99.90
21834;DHT22;11079;51.092;3.458;2023-09-30T15:45:52;21.70;99.90
21834;DHT22;11079;51.092;3.458;2023-09-30T15:48:19;21.70;99.90
21834;DHT22;11079;51.092;3.458;2023-09-30T15:50:45;21.70;99.90
21834;DHT22;11079;51.092;3.458;2023-09-30T15:53:12;21.70;99.90
21834;DHT22;11079;51.092;3.458;2023-09-30T15:55:37;21.80;99.90
21834;DHT22;11079;51.092;3.458;2023-09-30T15:58:04;21.60;99.90
21834;DHT22;11079;51.092;3.458;2023-09-30T16:00:30;21.40;99.90
21834;DHT22;11079;51.092;3.458;2023-09-30T16:02:56;21.50;99.90
21834;DHT22;11079;51.092;3.458;2023-09-30T16:05:25;21.20;99.90
21834;DHT22;11079;51.092;3.458;2023-09-30T16:07:51;21.40;99.90
21834;DHT22;11079;51.092;3.458;2023-09-30T16:10:16;21.30;99.90
21834;DHT22;11079;51.092;3.458;2023-09-30T16:12:42;21.20;99.90
21834;DHT22;11079;51.092;3.458;2023-09-30T16:15:08;21.10;99.90
21834;DHT22;11079;51.092;3.458;2023-09-30T16:17:36;21.10;99.90
21834;DHT22;11079;51.092;3.458;2023-09-30T16:20:03;21.20;99.90
21834;DHT22;11079;51.092;3.458;2023-09-30T16:22:30;21.20;99.90
21834;DHT22;11079;51.092;3.458;2023-09-30T16:24:57;21.30;99.90
21834;DHT22;11079;51.092;3.458;2023-09-30T16:27:23;21.30;99.90
21834;DHT22;11079;51.092;3.458;2023-09-30T16:29:49;21.30;99.90
21834;DHT22;11079;51.092;3.458;2023-09-30T16:32:14;21.20;99.90
21834;DHT22;11079;51.092;3.458;2023-09-30T16:34:46;21.00;99.90
21834;DHT22;11079;51.092;3.458;2023-09-30T16:37:23;21.20;99.90
21834;DHT22;11079;51.092;3.458;2023-09-30T16:39:49;21.30;99.90
21834;DHT22;11079;51.092;3.458;2023-09-30T16:42:15;21.20;99.90
21834;DHT22;11079;51.092;3.458;2023-09-30T16:44:41;21.00;99.90
21834;DHT22;11079;51.092;3.458;2023-09-30T16:47:07;20.90;99.90
21834;DHT22;11079;51.092;3.458;2023-09-30T16:49:33;20.90;99.90
21834;DHT22;11079;51.092;3.458;2023-09-30T16:52:00;21.00;99.90
21834;DHT22;11079;51.092;3.458;2023-09-30T16:54:26;21.00;99.90
21834;DHT22;11079;51.092;3.458;2023-09-30T16:56:51;20.90;99.90
21834;DHT22;11079;51.092;3.458;2023-09-30T16:59:17;20.90;99.90
21834;DHT22;11079;51.092;3.458;2023-09-30T17:01:43;21.00;99.90
21834;DHT22;11079;51.092;3.458;2023-09-30T17:04:15;21.00;99.90
21834;DHT22;11079;51.092;3.458;2023-09-30T17:06:41;20.90;99.90
21834;DHT22;11079;51.092;3.458;2023-09-30T17:09:09;20.80;99.90
21834;DHT22;11079;51.092;3.458;2023-09-30T17:11:36;20.70;99.90
21834;DHT22;11079;51.092;3.458;2023-09-30T17:14:03;20.50;99.90
21834;DHT22;11079;51.092;3.458;2023-09-30T17:19:14;20.30;99.90
21834;DHT22;11079;51.092;3.458;2023-09-30T17:21:41;20.40;99.90
21834;DHT22;11079;51.092;3.458;2023-09-30T17:24:08;20.30;99.90
21834;DHT22;11079;51.092;3.458;2023-09-30T17:26:36;20.30;99.90
21834;DHT22;11079;51.092;3.458;2023-09-30T17:29:02;20.30;99.90
21834;DHT22;11079;51.092;3.458;2023-09-30T17:31:28;20.20;99.90
21834;DHT22;11079;51.092;3.458;2023-09-30T17:33:56;20.10;99.90
21834;DHT22;11079;51.092;3.458;2023-09-30T17:36:22;20.20;99.90
21834;DHT22;11079;51.092;3.458;2023-09-30T17:38:48;19.90;99.90
21834;DHT22;11079;51.092;3.458;2023-09-30T17:41:19;19.70;99.90
21834;DHT22;11079;51.092;3.458;2023-09-30T17:43:46;19.60;99.90
21834;DHT22;11079;51.092;3.458;2023-09-30T17:46:17;19.40;99.90
21834;DHT22;11079;51.092;3.458;2023-09-30T17:48:53;19.20;99.90
21834;DHT22;11079;51.092;3.458;2023-09-30T17:51:24;19.20;99.90
21834;DHT22;11079;51.092;3.458;2023-09-30T17:54:17;19.00;99.90
21834;DHT22;11079;51.092;3.458;2023-09-30T17:56:59;18.90;99.90
21834;DHT22;11079;51.092;3.458;2023-09-30T17:59:25;18.80;99.90
21834;DHT22;11079;51.092;3.458;2023-09-30T18:01:52;18.80;99.90
21834;DHT22;11079;51.092;3.458;2023-09-30T18:04:19;18.70;99.90
21834;DHT22;11079;51.092;3.458;2023-09-30T18:06:45;18.60;99.90
21834;DHT22;11079;51.092;3.458;2023-09-30T18:09:11;18.50;99.90
21834;DHT22;11079;51.092;3.458;2023-09-30T18:11:38;18.50;99.90
21834;DHT22;11079;51.092;3.458;2023-09-30T18:14:04;18.30;99.90
21834;DHT22;11079;51.092;3.458;2023-09-30T18:16:32;18.10;99.90
21834;DHT22;11079;51.092;3.458;2023-09-30T18:18:57;18.00;99.90
21834;DHT22;11079;51.092;3.458;2023-09-30T18:21:29;17.90;99.90
21834;DHT22;11079;51.092;3.458;2023-09-30T18:26:50;17.80;99.90
21834;DHT22;11079;51.092;3.458;2023-09-30T18:29:15;17.90;99.90
21834;DHT22;11079;51.092;3.458;2023-09-30T18:31:41;17.80;99.90
21834;DHT22;11079;51.092;3.458;2023-09-30T18:34:09;17.70;99.90
21834;DHT22;11079;51.092;3.458;2023-09-30T18:36:35;17.60;99.90
21834;DHT22;11079;51.092;3.458;2023-09-30T18:41:42;17.60;99.90
21834;DHT22;11079;51.092;3.458;2023-09-30T18:44:11;17.50;99.90
21834;DHT22;11079;51.092;3.458;2023-09-30T18:46:38;17.50;99.90
21834;DHT22;11079;51.092;3.458;2023-09-30T18:49:03;17.50;99.90
21834;DHT22;11079;51.092;3.458;2023-09-30T18:51:29;17.40;99.90
21834;DHT22;11079;51.092;3.458;2023-09-30T18:53:55;17.40;99.90
21834;DHT22;11079;51.092;3.458;2023-09-30T18:56:21;17.20;99.90
21834;DHT22;11079;51.092;3.458;2023-09-30T18:58:47;17.20;99.90
21834;DHT22;11079;51.092;3.458;2023-09-30T19:01:13;17.20;99.90
21834;DHT22;11079;51.092;3.458;2023-09-30T19:03:40;17.10;99.90
21834;DHT22;11079;51.092;3.458;2023-09-30T19:06:08;17.20;99.90
21834;DHT22;11079;51.092;3.458;2023-09-30T19:08:33;17.20;99.90
21834;DHT22;11079;51.092;3.458;2023-09-30T19:11:03;17.20;99.90
21834;DHT22;11079;51.092;3.458;2023-09-30T19:13:30;17.10;99.90
21834;DHT22;11079;51.092;3.458;2023-09-30T19:15:56;17.00;99.90
21834;DHT22;11079;51.092;3.458;2023-09-30T19:18:22;17.00;99.90
21834;DHT22;11079;51.092;3.458;2023-09-30T19:20:48;16.90;99.90
21834;DHT22;11079;51.092;3.458;2023-09-30T19:23:14;16.80;99.90
21834;DHT22;11079;51.092;3.458;2023-09-30T19:25:39;16.70;99.90
21834;DHT22;11079;51.092;3.458;2023-09-30T19:28:05;16.50;99.90
21834;DHT22;11079;51.092;3.458;2023-09-30T19:30:38;16.50;99.90
21834;DHT22;11079;51.092;3.458;2023-09-30T19:33:04;16.50;99.90
21834;DHT22;11079;51.092;3.458;2023-09-30T19:40:52;16.40;99.90
21834;DHT22;11079;51.092;3.458;2023-09-30T19:43:19;16.60;99.90
21834;DHT22;11079;51.092;3.458;2023-09-30T19:45:45;16.50;99.90
21834;DHT22;11079;51.092;3.458;2023-09-30T19:48:11;16.50;99.90
21834;DHT22;11079;51.092;3.458;2023-09-30T19:50:37;16.40;99.90
21834;DHT22;11079;51.092;3.458;2023-09-30T19:53:13;16.50;99.90
21834;DHT22;11079;51.092;3.458;2023-09-30T19:56:06;16.70;99.90
21834;DHT22;11079;51.092;3.458;2023-09-30T19:58:35;16.70;99.90
21834;DHT22;11079;51.092;3.458;2023-09-30T20:11:25;16.40;99.90
21834;DHT22;11079;51.092;3.458;2023-09-30T20:13:58;16.30;99.90
21834;DHT22;11079;51.092;3.458;2023-09-30T20:16:25;16.20;99.90